Time;durP1;ratioP1;P1;durP2;ratioP2;P2;SDS_P1;SDS_P2;PMS_P1;PMS_P2;Temp;Humidity;BMP_temperature;BMP_pressure;BME280_temperature;BME280_humidity;BME280_pressure;Samples;Min_cycle;Max_cycle;Signal;HPM_P1;HPM_P2
2021/08/02 00:01:18;;;;;;;4.43;1.40;;;;;;;16.25;62.15;101050.78;5081061;28;19920;-40
2021/08/02 00:03:57;;;;;;;4.55;1.35;;;;;;;16.17;62.00;101051.06;5081894;28;20451;-42
2021/08/02 00:06:32;;;;;;;2.35;0.85;;;;;;;16.11;61.90;101047.78;5081244;28;20147;-42
2021/08/02 00:09:08;;;;;;;2.05;1.27;;;;;;;16.09;61.78;101047.34;5066768;28;20052;-44
2021/08/02 00:11:44;;;;;;;1.85;1.30;;;;;;;16.12;61.64;101049.41;5084829;28;20052;-41
2021/08/02 00:14:14;;;;;;;3.08;1.25;;;;;;;16.06;61.41;101056.47;5085357;28;20044;-42
2021/08/02 00:16:41;;;;;;;4.20;1.20;;;;;;;16.03;61.57;101057.22;5085095;28;20044;-43
2021/08/02 00:19:09;;;;;;;4.10;1.08;;;;;;;15.98;61.51;101057.53;5085672;28;20079;-42
2021/08/02 00:21:40;;;;;;;4.45;1.20;;;;;;;15.99;61.40;101047.19;5084597;28;20618;-41
2021/08/02 00:24:09;;;;;;;7.90;1.20;;;;;;;15.94;61.30;101062.25;5084288;28;20166;-46
2021/08/02 00:26:36;;;;;;;1.35;1.02;;;;;;;15.89;61.49;101053.38;5083405;28;20040;-44
2021/08/02 00:29:04;;;;;;;5.72;1.40;;;;;;;15.86;61.31;101060.50;5084876;28;20489;-41
2021/08/02 00:31:32;;;;;;;2.08;1.20;;;;;;;15.85;61.61;101058.91;5085268;28;20078;-41
2021/08/02 00:34:03;;;;;;;4.47;1.08;;;;;;;15.83;61.59;101056.47;5084763;28;20095;-42
2021/08/02 00:36:29;;;;;;;4.38;1.27;;;;;;;15.81;61.37;101058.03;5084567;28;20101;-41
2021/08/02 00:39:10;;;;;;;2.88;1.20;;;;;;;15.79;61.12;101054.81;5084533;28;20036;-41
2021/08/02 00:42:17;;;;;;;2.03;1.30;;;;;;;15.73;61.39;101054.31;5085109;28;20647;-41
2021/08/02 00:45:02;;;;;;;4.47;1.70;;;;;;;15.69;61.40;101052.66;5085312;28;20047;-41
2021/08/02 00:47:50;;;;;;;2.13;1.38;;;;;;;15.65;61.03;101051.75;5084513;28;20044;-42
2021/08/02 00:50:23;;;;;;;5.88;1.38;;;;;;;15.61;61.11;101059.28;5083418;28;20095;-41
2021/08/02 00:53:05;;;;;;;2.90;1.17;;;;;;;15.53;61.15;101057.53;5083938;28;20151;-41
2021/08/02 00:55:37;;;;;;;2.50;1.00;;;;;;;15.51;61.04;101055.13;5085056;28;20040;-41
2021/08/02 00:58:08;;;;;;;5.15;1.40;;;;;;;15.44;61.39;101052.16;5084216;28;20123;-41
2021/08/02 01:00:35;;;;;;;1.63;1.30;;;;;;;15.43;61.50;101052.53;5083540;28;20040;-41
2021/08/02 01:03:08;;;;;;;2.55;1.20;;;;;;;15.42;61.47;101056.50;5083993;28;20040;-41
2021/08/02 01:05:37;;;;;;;3.40;1.42;;;;;;;15.39;61.35;101058.03;5084369;28;20064;-42
2021/08/02 01:08:07;;;;;;;2.88;1.30;;;;;;;15.36;61.25;101055.19;5084961;28;20848;-46
2021/08/02 01:10:36;;;;;;;5.13;1.88;;;;;;;15.31;61.39;101055.47;5084504;28;20042;-40
2021/08/02 01:13:07;;;;;;;3.15;1.35;;;;;;;15.21;61.37;101057.72;5085575;28;20493;-42
2021/08/02 01:15:35;;;;;;;3.63;1.40;;;;;;;15.27;61.31;101060.19;5084293;28;20040;-45
2021/08/02 01:18:03;;;;;;;3.22;1.10;;;;;;;15.31;60.99;101066.66;5084448;28;20532;-42
2021/08/02 01:20:32;;;;;;;3.10;1.02;;;;;;;15.30;61.28;101065.84;5083553;28;20043;-41
2021/08/02 01:23:04;;;;;;;4.05;1.00;;;;;;;15.26;61.25;101056.59;5084061;28;20052;-41
2021/08/02 01:25:34;;;;;;;2.53;1.08;;;;;;;15.22;61.22;101064.09;5083904;28;20145;-43
2021/08/02 01:28:13;;;;;;;2.80;1.02;;;;;;;15.18;61.16;101066.81;5082627;28;20139;-46
2021/08/02 01:30:40;;;;;;;1.77;1.17;;;;;;;15.17;61.47;101067.97;5083998;28;20515;-41
2021/08/02 01:33:08;;;;;;;1.13;1.02;;;;;;;15.17;61.37;101067.16;5083594;28;20492;-44
2021/08/02 01:35:37;;;;;;;4.80;2.00;;;;;;;15.19;61.55;101076.81;5082625;28;20046;-41
2021/08/02 01:38:04;;;;;;;1.50;1.15;;;;;;;15.20;61.53;101066.44;5084001;28;20138;-48
2021/08/02 01:40:33;;;;;;;1.75;1.10;;;;;;;15.22;61.53;101066.91;5082190;28;20085;-44
2021/08/02 01:43:03;;;;;;;3.13;1.30;;;;;;;15.16;61.60;101063.59;5084180;28;20086;-42
2021/08/02 01:45:37;;;;;;;2.83;1.35;;;;;;;15.20;61.65;101067.25;5082867;28;20029;-43
2021/08/02 01:48:17;;;;;;;2.70;1.75;;;;;;;15.16;61.63;101066.38;5082928;28;20051;-41
2021/08/02 01:51:08;;;;;;;2.65;2.33;;;;;;;15.19;61.54;101076.00;5065326;28;20139;-49
2021/08/02 01:53:45;;;;;;;1.83;1.40;;;;;;;15.21;61.34;101068.88;5082828;28;20048;-41
2021/08/02 01:56:26;;;;;;;4.03;1.40;;;;;;;15.20;61.50;101067.25;5083359;28;20496;-41
2021/08/02 01:59:29;;;;;;;2.28;1.08;;;;;;;15.17;61.46;101073.56;5082693;28;20052;-46
2021/08/02 02:02:03;;;;;;;1.55;1.00;;;;;;;15.13;61.23;101069.09;5082921;28;20147;-41
2021/08/02 02:04:39;;;;;;;1.67;1.13;;;;;;;15.10;61.51;101072.63;5083412;28;20086;-42
2021/08/02 02:07:10;;;;;;;3.70;1.70;;;;;;;15.11;61.41;101075.06;5082922;28;20052;-43
2021/08/02 02:09:40;;;;;;;3.55;1.58;;;;;;;15.05;61.03;101070.13;5083172;28;20047;-41
2021/08/02 02:12:10;;;;;;;10.93;2.03;;;;;;;15.03;61.07;101076.09;5082728;28;20051;-41
2021/08/02 02:14:40;;;;;;;2.58;1.20;;;;;;;15.01;61.23;101081.19;5083895;28;20035;-47
2021/08/02 02:17:09;;;;;;;2.88;1.15;;;;;;;15.02;61.21;101080.03;5083957;28;20036;-45
2021/08/02 02:19:40;;;;;;;2.55;1.10;;;;;;;15.01;61.32;101075.63;5082941;28;20048;-47
2021/08/02 02:22:09;;;;;;;2.95;1.45;;;;;;;14.97;61.27;101074.75;5082288;28;20665;-42
2021/08/02 02:24:38;;;;;;;1.85;0.98;;;;;;;14.96;61.01;101073.13;5082629;28;20477;-43
2021/08/02 02:27:06;;;;;;;2.78;1.17;;;;;;;14.92;61.26;101074.22;5082609;28;20054;-42
2021/08/02 02:29:35;;;;;;;3.67;1.38;;;;;;;14.87;61.28;101069.75;5080908;28;20079;-47
2021/08/02 02:32:05;;;;;;;3.33;1.52;;;;;;;14.91;61.19;101076.22;5081299;28;20666;-48
2021/08/02 02:34:37;;;;;;;2.33;1.52;;;;;;;14.91;61.07;101076.22;5081639;28;20044;-45
2021/08/02 02:37:06;;;;;;;4.17;1.13;;;;;;;14.95;61.36;101077.09;5082368;28;20055;-43
2021/08/02 02:39:35;;;;;;;1.52;1.20;;;;;;;14.97;61.53;101074.75;5082550;28;20481;-43
2021/08/02 02:42:02;;;;;;;3.22;1.15;;;;;;;14.98;61.47;101068.00;5082656;28;20055;-44
2021/08/02 02:44:36;;;;;;;2.70;1.48;;;;;;;14.95;61.39;101065.97;5081689;28;20101;-47
2021/08/02 02:47:05;;;;;;;2.90;1.77;;;;;;;14.93;61.66;101070.28;5082424;28;20036;-43
2021/08/02 02:49:35;;;;;;;4.05;1.95;;;;;;;14.89;61.90;101067.41;5082672;28;20040;-42
2021/08/02 02:52:05;;;;;;;6.53;1.38;;;;;;;14.86;61.77;101073.72;5081499;28;20043;-51
2021/08/02 02:54:32;;;;;;;4.68;1.40;;;;;;;14.87;61.89;101071.75;5082456;28;20631;-44
2021/08/02 02:57:00;;;;;;;4.80;1.60;;;;;;;14.86;61.96;101061.75;5081075;28;20063;-44
2021/08/02 02:59:30;;;;;;;2.97;1.50;;;;;;;14.86;62.00;101062.56;5082772;28;20105;-43
2021/08/02 03:02:00;;;;;;;2.60;1.10;;;;;;;14.87;62.28;101068.94;5081895;28;20052;-47
2021/08/02 03:04:34;;;;;;;2.45;1.52;;;;;;;14.85;62.27;101066.50;5082116;28;20407;-42
2021/08/02 03:07:02;;;;;;;2.47;1.15;;;;;;;14.86;62.32;101065.34;5080498;28;20042;-43
2021/08/02 03:09:38;;;;;;;2.45;1.67;;;;;;;14.86;62.34;101068.16;5081605;28;20120;-42
2021/08/02 03:12:05;;;;;;;3.05;1.40;;;;;;;14.83;62.36;101073.63;5081909;28;20036;-43
2021/08/02 03:14:33;;;;;;;2.92;1.48;;;;;;;14.80;62.32;101061.22;5080708;28;20044;-43
2021/08/02 03:17:00;;;;;;;1.85;1.60;;;;;;;14.78;62.56;101069.16;5081962;28;20052;-46
2021/08/02 03:19:27;;;;;;;4.20;1.20;;;;;;;14.79;62.28;101068.00;5081538;28;20405;-43
2021/08/02 03:21:54;;;;;;;4.28;1.63;;;;;;;14.80;62.45;101069.59;5081528;28;20701;-44
2021/08/02 03:24:27;;;;;;;3.63;1.40;;;;;;;14.78;62.38;101073.94;5082316;28;20481;-43
2021/08/02 03:27:05;;;;;;;3.58;1.40;;;;;;;14.74;62.37;101073.88;5081361;28;20502;-43
2021/08/02 03:29:39;;;;;;;2.65;1.48;;;;;;;14.72;62.60;101062.25;5080273;28;20083;-46
2021/08/02 03:32:13;;;;;;;2.17;1.40;;;;;;;14.75;62.26;101061.53;5081057;28;20052;-42
2021/08/02 03:34:50;;;;;;;4.07;1.35;;;;;;;14.73;62.39;101063.88;5081510;28;21761;-45
2021/08/02 03:37:18;;;;;;;4.30;1.33;;;;;;;14.67;62.32;101059.75;5081629;28;20119;-43
2021/08/02 03:39:49;;;;;;;2.10;1.60;;;;;;;14.55;62.62;101068.25;5082167;28;20127;-51
2021/08/02 03:42:19;;;;;;;2.22;2.03;;;;;;;14.47;62.50;101072.06;5080950;28;20404;-45
2021/08/02 03:44:47;;;;;;;3.50;1.48;;;;;;;14.41;62.81;101074.31;5081561;28;20111;-43
2021/08/02 03:47:14;;;;;;;4.22;1.77;;;;;;;14.40;62.82;101075.47;5080395;28;20047;-47
2021/08/02 03:49:41;;;;;;;4.00;2.20;;;;;;;14.45;62.75;101077.19;5043750;28;20502;-48
2021/08/02 03:52:09;;;;;;;3.00;1.90;;;;;;;14.41;63.03;101074.31;5082866;28;20040;-42
2021/08/02 03:54:35;;;;;;;3.60;2.20;;;;;;;14.37;62.67;101072.63;5082141;28;20048;-43
2021/08/02 03:57:03;;;;;;;5.50;1.90;;;;;;;14.27;62.88;101073.16;5082078;28;20042;-43
2021/08/02 03:59:30;;;;;;;4.38;2.20;;;;;;;14.20;63.28;101072.97;5081233;28;20036;-43
2021/08/02 04:01:58;;;;;;;2.42;2.03;;;;;;;14.10;63.52;101074.34;5080275;28;20040;-43
2021/08/02 04:04:25;;;;;;;4.45;1.85;;;;;;;14.03;63.71;101083.31;5081924;28;20493;-43
2021/08/02 04:06:51;;;;;;;2.35;1.88;;;;;;;13.93;63.86;101081.06;5080979;28;20044;-43
2021/08/02 04:09:19;;;;;;;7.03;1.70;;;;;;;13.89;64.03;101080.19;5080659;28;20048;-42
2021/08/02 04:11:45;;;;;;;2.08;1.85;;;;;;;13.84;64.02;101077.69;5080975;28;20062;-44
2021/08/02 04:14:13;;;;;;;2.65;1.45;;;;;;;13.82;64.17;101074.44;5081076;28;20036;-43
2021/08/02 04:16:40;;;;;;;2.67;1.98;;;;;;;13.75;64.47;101073.44;5080823;28;20087;-44
2021/08/02 04:19:09;;;;;;;3.85;2.20;;;;;;;13.71;64.47;101070.59;5079786;28;20063;-48
2021/08/02 04:21:36;;;;;;;3.47;2.45;;;;;;;13.74;64.46;101064.28;5080921;28;20052;-42
2021/08/02 04:24:03;;;;;;;3.75;2.33;;;;;;;13.73;64.48;101071.03;5080775;28;20330;-42
2021/08/02 04:26:30;;;;;;;3.33;2.30;;;;;;;13.63;64.76;101070.75;5080911;28;20147;-44
2021/08/02 04:28:57;;;;;;;2.97;2.33;;;;;;;13.53;65.17;101065.72;5080973;28;20048;-45
2021/08/02 04:31:28;;;;;;;7.82;1.95;;;;;;;13.47;65.47;101078.28;5079754;28;20058;-42
2021/08/02 04:34:01;;;;;;;4.03;2.08;;;;;;;13.42;65.13;101077.34;5079914;28;20060;-44
2021/08/02 04:36:28;;;;;;;2.60;1.90;;;;;;;13.49;65.08;101087.06;5080103;28;20040;-45
2021/08/02 04:38:54;;;;;;;3.25;2.08;;;;;;;13.45;65.13;101080.59;5081272;28;20138;-46
2021/08/02 04:41:21;;;;;;;2.20;1.92;;;;;;;13.54;64.90;101084.81;5063160;28;20048;-42
2021/08/02 04:43:48;;;;;;;4.82;2.55;;;;;;;13.54;64.46;101079.25;5080786;28;20066;-43
2021/08/02 04:46:15;;;;;;;5.28;2.40;;;;;;;13.55;64.72;101089.25;5080952;28;20050;-43
2021/08/02 04:48:42;;;;;;;2.88;2.33;;;;;;;13.55;64.59;101088.44;5080777;28;20040;-44
2021/08/02 04:51:10;;;;;;;4.85;2.65;;;;;;;13.47;64.74;101081.88;5081308;28;20040;-42
2021/08/02 04:53:37;;;;;;;3.38;3.08;;;;;;;13.37;65.03;101085.97;5081282;28;20131;-47
2021/08/02 04:56:04;;;;;;;4.30;2.63;;;;;;;13.31;65.03;101081.84;5082888;28;20047;-41
2021/08/02 04:58:31;;;;;;;5.53;3.35;;;;;;;13.24;65.21;101083.59;5083972;28;20054;-46
2021/08/02 05:00:58;;;;;;;6.03;2.75;;;;;;;13.22;65.43;101088.69;5085504;28;20048;-42
2021/08/02 05:03:25;;;;;;;3.33;2.60;;;;;;;13.23;65.59;101091.16;5083412;28;20477;-46
2021/08/02 05:05:54;;;;;;;5.28;2.83;;;;;;;13.27;65.60;101091.22;5082240;28;20036;-42
2021/08/02 05:08:21;;;;;;;3.15;2.50;;;;;;;13.27;65.23;101086.47;5084559;28;20097;-42
2021/08/02 05:10:50;;;;;;;3.60;2.85;;;;;;;13.16;65.74;101090.94;5083748;28;20369;-42
2021/08/02 05:13:17;;;;;;;3.55;2.67;;;;;;;13.15;65.83;101094.06;5084862;28;20075;-43
2021/08/02 05:15:45;;;;;;;5.10;3.03;;;;;;;13.20;65.78;101088.25;5084211;28;20478;-43
2021/08/02 05:18:13;;;;;;;6.63;2.53;;;;;;;13.22;65.86;101091.47;5083667;28;20486;-42
2021/08/02 05:20:42;;;;;;;3.47;2.65;;;;;;;13.24;65.94;101091.94;5082985;28;20056;-43
2021/08/02 05:23:10;;;;;;;4.70;3.22;;;;;;;13.27;65.90;101085.66;5066406;28;20043;-43
2021/08/02 05:25:37;;;;;;;5.10;3.35;;;;;;;13.36;65.78;101091.88;5083831;28;20071;-44
2021/08/02 05:28:08;;;;;;;5.72;2.88;;;;;;;13.31;65.99;101081.84;5083195;28;20040;-45
2021/08/02 05:30:35;;;;;;;3.22;2.90;;;;;;;13.30;66.27;101084.97;5081892;28;20058;-48
2021/08/02 05:33:02;;;;;;;6.75;3.45;;;;;;;13.41;65.90;101070.19;5083082;28;20054;-44
2021/08/02 05:35:29;;;;;;;6.72;3.45;;;;;;;13.49;65.75;101076.75;5083564;28;20044;-46
2021/08/02 05:37:55;;;;;;;4.43;3.45;;;;;;;13.57;65.71;101089.69;5084011;28;20084;-46
2021/08/02 05:40:24;;;;;;;3.03;2.58;;;;;;;13.61;65.77;101081.44;5083753;28;20456;-44
2021/08/02 05:42:50;;;;;;;5.95;3.70;;;;;;;13.68;65.59;101079.66;5082949;28;21780;-45
2021/08/02 05:45:18;;;;;;;6.32;3.20;;;;;;;13.60;66.08;101061.16;5083209;28;20043;-48
2021/08/02 05:47:45;;;;;;;4.18;3.05;;;;;;;13.67;65.91;101066.06;5084235;28;20066;-42
2021/08/02 05:50:12;;;;;;;3.83;2.60;;;;;;;13.72;65.67;101063.84;5082337;28;20044;-44
2021/08/02 05:52:41;;;;;;;2.58;2.22;;;;;;;13.78;65.72;101069.94;5083126;28;20055;-43
2021/08/02 05:55:10;;;;;;;3.67;2.10;;;;;;;13.75;65.61;101071.47;5084265;28;20180;-43
2021/08/02 05:57:37;;;;;;;8.85;3.47;;;;;;;13.77;65.38;101060.78;5083038;28;20184;-43
2021/08/02 06:00:07;;;;;;;3.13;2.22;;;;;;;13.85;65.45;101068.16;5082859;28;20048;-42
2021/08/02 06:02:36;;;;;;;3.20;2.42;;;;;;;13.84;65.44;101069.34;5065053;28;20044;-47
2021/08/02 06:05:04;;;;;;;3.75;2.40;;;;;;;13.87;65.22;101063.03;5082541;28;20482;-42
2021/08/02 06:07:32;;;;;;;4.45;2.33;;;;;;;13.89;65.21;101074.63;5082434;28;20065;-43
2021/08/02 06:10:02;;;;;;;4.68;2.22;;;;;;;13.93;65.13;101069.13;5083337;28;20070;-42
2021/08/02 06:12:28;;;;;;;4.05;2.45;;;;;;;14.04;64.97;101070.22;5083256;28;20058;-43
2021/08/02 06:14:57;;;;;;;7.03;2.65;;;;;;;14.01;64.86;101076.50;5082984;28;20048;-50
2021/08/02 06:17:25;;;;;;;5.22;2.60;;;;;;;13.99;65.15;101070.47;5082873;28;20060;-43
2021/08/02 06:19:52;;;;;;;5.57;2.42;;;;;;;14.01;65.38;101071.75;5082172;28;20047;-43
2021/08/02 06:22:18;;;;;;;2.63;2.13;;;;;;;14.14;65.11;101074.44;5082903;28;20048;-42
2021/08/02 06:24:46;;;;;;;3.85;2.72;;;;;;;14.29;64.71;101076.38;5082245;28;20048;-46
2021/08/02 06:27:13;;;;;;;3.70;2.90;;;;;;;14.35;64.55;101066.63;5082309;28;20043;-46
2021/08/02 06:29:40;;;;;;;6.63;2.92;;;;;;;14.32;64.37;101068.13;5080881;28;20040;-41
2021/08/02 06:32:08;;;;;;;2.65;2.15;;;;;;;14.31;64.69;101065.69;5083053;28;20067;-44
2021/08/02 06:34:35;;;;;;;6.47;3.08;;;;;;;14.37;64.78;101067.06;5082281;28;20048;-44
2021/08/02 06:37:03;;;;;;;2.95;2.55;;;;;;;14.40;64.83;101057.97;5081630;28;20774;-43
2021/08/02 06:39:31;;;;;;;3.85;2.30;;;;;;;14.46;64.71;101070.44;5083016;28;20055;-50
2021/08/02 06:41:59;;;;;;;7.22;3.53;;;;;;;14.59;64.50;101067.16;5064352;28;20048;-46
2021/08/02 06:44:26;;;;;;;3.30;2.50;;;;;;;14.67;64.34;101065.34;5082408;28;20082;-46
2021/08/02 06:46:52;;;;;;;4.35;2.08;;;;;;;14.71;64.25;101071.00;5081550;28;20044;-45
2021/08/02 06:49:19;;;;;;;3.25;2.28;;;;;;;14.67;64.20;101062.53;5082414;28;20104;-43
2021/08/02 06:51:46;;;;;;;4.75;2.50;;;;;;;14.68;63.97;101068.94;5081355;28;20086;-48
2021/08/02 06:54:14;;;;;;;4.60;2.28;;;;;;;14.76;63.81;101063.16;5082983;28;20052;-45
2021/08/02 06:56:43;;;;;;;3.58;2.13;;;;;;;14.91;63.59;101067.84;5082298;28;20101;-43
2021/08/02 06:59:10;;;;;;;5.50;2.67;;;;;;;14.94;63.56;101064.31;5082110;28;20050;-43
2021/08/02 07:01:36;;;;;;;3.67;2.72;;;;;;;15.02;63.43;101065.28;5081327;28;20508;-44
2021/08/02 07:04:05;;;;;;;4.25;2.10;;;;;;;15.02;63.28;101066.09;5081557;28;20236;-43
2021/08/02 07:06:32;;;;;;;3.75;2.25;;;;;;;15.05;63.02;101070.94;5079841;28;20050;-43
2021/08/02 07:08:59;;;;;;;2.95;1.95;;;;;;;15.04;63.03;101074.06;5082393;28;20048;-47
2021/08/02 07:11:27;;;;;;;2.53;2.15;;;;;;;15.09;63.00;101071.03;5081922;28;20060;-44
2021/08/02 07:13:54;;;;;;;4.30;1.67;;;;;;;15.09;62.43;101071.81;5081949;28;20176;-43
2021/08/02 07:16:22;;;;;;;5.35;2.25;;;;;;;15.05;62.67;101070.94;5080902;28;20040;-46
2021/08/02 07:18:49;;;;;;;3.00;1.92;;;;;;;15.04;62.82;101066.53;5079557;28;20055;-42
2021/08/02 07:21:16;;;;;;;3.55;2.30;;;;;;;15.06;62.73;101063.38;5081880;28;20435;-43
2021/08/02 07:23:42;;;;;;;3.95;2.08;;;;;;;15.01;62.24;101058.88;5081604;28;20054;-47
2021/08/02 07:26:10;;;;;;;3.65;2.17;;;;;;;14.90;61.71;101054.28;5081697;28;20050;-42
2021/08/02 07:28:36;;;;;;;3.25;1.70;;;;;;;14.88;61.89;101059.44;5081396;28;20130;-43
2021/08/02 07:31:04;;;;;;;5.88;2.00;;;;;;;14.90;61.94;101051.50;5081574;28;20998;-48
2021/08/02 07:33:31;;;;;;;3.30;1.73;;;;;;;14.97;61.82;101043.28;5081912;28;20047;-44
2021/08/02 07:35:59;;;;;;;5.03;2.15;;;;;;;15.00;61.65;101057.28;5081358;28;20054;-43
2021/08/02 07:38:26;;;;;;;2.90;1.65;;;;;;;14.98;61.78;101040.13;5081281;28;20440;-46
2021/08/02 07:40:53;;;;;;;3.42;2.05;;;;;;;15.02;61.73;101037.41;5081519;28;21951;-43
2021/08/02 07:43:20;;;;;;;4.90;2.20;;;;;;;14.95;61.74;101040.88;5081410;28;20404;-43
2021/08/02 07:45:46;;;;;;;3.58;1.70;;;;;;;14.97;61.88;101038.50;5081136;28;20135;-44
2021/08/02 07:48:14;;;;;;;3.03;2.05;;;;;;;14.98;61.73;101042.91;5081960;28;20047;-44
2021/08/02 07:50:40;;;;;;;4.68;1.70;;;;;;;14.96;61.55;101034.09;5081211;28;20044;-47
2021/08/02 07:53:09;;;;;;;4.88;1.80;;;;;;;14.95;61.80;101035.28;5064320;28;20147;-43
2021/08/02 07:55:37;;;;;;;1.92;1.38;;;;;;;15.01;62.11;101042.16;5081955;28;20130;-43
2021/08/02 07:58:13;;;;;;;1.90;1.63;;;;;;;14.96;61.88;101052.78;5080914;28;20040;-46
2021/08/02 08:00:40;;;;;;;1.90;1.63;;;;;;;14.94;61.96;101049.56;5081027;28;20062;-46
2021/08/02 08:03:07;;;;;;;3.03;1.60;;;;;;;14.97;61.87;101038.50;5082078;28;20040;-48
2021/08/02 08:05:35;;;;;;;2.65;1.50;;;;;;;15.01;61.67;101046.94;5082227;28;20045;-43
2021/08/02 08:08:03;;;;;;;3.08;1.77;;;;;;;15.03;61.76;101044.59;5081577;28;20126;-43
2021/08/02 08:10:32;;;;;;;3.25;1.75;;;;;;;15.08;61.54;101047.91;5081051;28;20037;-43
2021/08/02 08:12:59;;;;;;;2.72;1.95;;;;;;;15.17;61.32;101048.47;5082958;28;20076;-45
2021/08/02 08:15:26;;;;;;;3.88;1.77;;;;;;;15.21;61.52;101045.75;5081204;28;20048;-42
2021/08/02 08:17:54;;;;;;;4.65;1.50;;;;;;;15.22;61.43;101059.31;5081526;28;20067;-43
2021/08/02 08:20:23;;;;;;;2.50;1.20;;;;;;;15.17;61.38;101056.81;5080274;28;20147;-48
2021/08/02 08:22:53;;;;;;;3.13;1.30;;;;;;;15.14;61.16;101049.19;5079908;28;20140;-44
2021/08/02 08:25:20;;;;;;;2.80;1.48;;;;;;;15.11;61.21;101052.75;5081262;28;20188;-46
2021/08/02 08:27:50;;;;;;;2.63;1.52;;;;;;;15.16;61.13;101052.44;5079834;28;20048;-43
2021/08/02 08:30:20;;;;;;;4.78;1.67;;;;;;;15.24;61.01;101056.97;5083941;28;20048;-44
2021/08/02 08:32:47;;;;;;;4.57;1.45;;;;;;;15.31;60.95;101041.53;5083964;28;20163;-44
2021/08/02 08:35:16;;;;;;;3.80;1.63;;;;;;;15.34;60.90;101049.16;5083855;28;20056;-43
2021/08/02 08:37:43;;;;;;;1.60;1.48;;;;;;;15.38;60.87;101045.25;5083607;28;20048;-43
2021/08/02 08:40:10;;;;;;;1.70;1.40;;;;;;;15.38;60.60;101044.47;5084614;28;20050;-43
2021/08/02 08:42:40;;;;;;;2.28;1.50;;;;;;;15.37;60.62;101042.84;5084377;28;20115;-43
2021/08/02 08:45:09;;;;;;;1.67;1.48;;;;;;;15.39;60.46;101040.50;5084148;28;20496;-46
2021/08/02 08:47:37;;;;;;;3.83;1.60;;;;;;;15.41;60.61;101043.75;5084016;28;20093;-50
2021/08/02 08:50:07;;;;;;;3.47;1.38;;;;;;;15.43;60.62;101041.38;5085051;28;20582;-43
2021/08/02 08:52:36;;;;;;;1.45;1.30;;;;;;;15.39;60.44;101040.50;5084713;28;20054;-44
2021/08/02 08:55:09;;;;;;;2.88;1.48;;;;;;;15.38;60.58;101038.91;5085003;28;20086;-43
2021/08/02 08:57:36;;;;;;;3.78;1.35;;;;;;;15.37;60.59;101029.72;5065108;28;20040;-44
2021/08/02 09:00:05;;;;;;;1.35;1.10;;;;;;;15.47;60.60;101031.09;5083777;28;20051;-43
2021/08/02 09:02:31;;;;;;;2.28;1.27;;;;;;;15.59;60.40;101033.72;5083788;28;20048;-45
2021/08/02 09:05:01;;;;;;;1.27;1.17;;;;;;;15.71;60.04;101030.75;5085320;28;20608;-43
2021/08/02 09:07:41;;;;;;;2.20;1.30;;;;;;;15.78;59.95;101034.47;5083983;28;20131;-44
2021/08/02 09:10:10;;;;;;;3.60;1.15;;;;;;;15.88;59.68;101033.03;5049573;28;20043;-43
2021/08/02 09:12:55;;;;;;;1.65;0.93;;;;;;;15.87;58.95;101028.63;5083012;28;20048;-47
2021/08/02 09:15:39;;;;;;;1.50;1.05;;;;;;;15.88;58.44;101024.66;5083763;28;20119;-43
2021/08/02 09:18:09;;;;;;;4.00;2.17;;;;;;;15.90;59.30;101025.09;5084359;28;20040;-43
2021/08/02 09:20:37;;;;;;;1.23;1.13;;;;;;;16.03;59.28;101023.69;5082652;28;20043;-48
2021/08/02 09:23:12;;;;;;;1.80;0.70;;;;;;;16.20;59.03;101027.97;5082747;28;20055;-45
2021/08/02 09:25:46;;;;;;;2.15;1.30;;;;;;;16.36;58.88;101029.38;5083708;28;20093;-43
2021/08/02 09:28:16;;;;;;;2.88;1.17;;;;;;;16.54;58.76;101034.47;5083765;28;20040;-43
2021/08/02 09:30:59;;;;;;;2.55;1.73;;;;;;;16.66;57.93;101028.63;5083906;28;20044;-44
2021/08/02 09:33:31;;;;;;;3.00;1.35;;;;;;;16.83;58.48;101037.25;5083836;28;20087;-44
2021/08/02 09:36:02;;;;;;;3.15;1.30;;;;;;;16.94;58.27;101031.78;5083275;28;20044;-42
2021/08/02 09:38:29;;;;;;;2.78;1.58;;;;;;;17.01;57.97;101026.28;5083664;28;20047;-48
2021/08/02 09:40:58;;;;;;;2.83;1.30;;;;;;;17.03;57.77;101029.47;5083110;28;20063;-43
2021/08/02 09:43:31;;;;;;;1.30;1.17;;;;;;;16.96;57.01;101030.22;5083240;28;20061;-42
2021/08/02 09:46:08;;;;;;;2.10;1.95;;;;;;;16.91;57.29;101036.16;5084123;28;20097;-45
2021/08/02 09:48:41;;;;;;;2.15;1.30;;;;;;;16.85;56.92;101031.25;5083187;28;20087;-40
2021/08/02 09:51:13;;;;;;;2.75;1.30;;;;;;;16.81;56.50;101027.63;5082757;28;20048;-41
2021/08/02 09:53:45;;;;;;;2.22;1.42;;;;;;;16.86;56.78;101035.69;5082982;28;20070;-41
2021/08/02 09:56:19;;;;;;;1.52;1.10;;;;;;;16.96;56.51;101033.03;5065116;28;20047;-45
2021/08/02 09:59:08;;;;;;;1.40;1.30;;;;;;;17.08;56.32;101031.94;5082488;28;20052;-41
2021/08/02 10:01:35;;;;;;;1.25;1.15;;;;;;;17.18;56.15;101031.28;5083620;28;20143;-41
2021/08/02 10:04:04;;;;;;;3.10;1.33;;;;;;;17.15;56.11;101037.63;5083981;28;20044;-43
2021/08/02 10:06:32;;;;;;;1.58;1.15;;;;;;;17.15;56.21;101034.84;5083265;28;20044;-43
2021/08/02 10:08:59;;;;;;;2.78;1.02;;;;;;;17.20;56.22;101023.31;5082962;28;20036;-46
2021/08/02 10:11:27;;;;;;;1.40;1.23;;;;;;;17.24;56.16;101024.13;5083480;28;20058;-42
2021/08/02 10:13:56;;;;;;;1.50;1.20;;;;;;;17.36;55.97;101018.28;5082327;28;20056;-49
2021/08/02 10:16:28;;;;;;;1.40;1.30;;;;;;;17.43;55.60;101018.34;5083039;28;20040;-41
2021/08/02 10:19:07;;;;;;;2.13;1.40;;;;;;;17.43;55.33;101026.72;5082753;28;20046;-42
2021/08/02 10:21:38;;;;;;;3.85;1.92;;;;;;;17.54;56.12;101018.47;5083335;28;20135;-41
2021/08/02 10:24:11;;;;;;;2.15;1.08;;;;;;;17.61;56.33;101016.53;5082821;28;20054;-42
2021/08/02 10:26:39;;;;;;;;;;;;;;;17.55;54.56;101017.28;5083067;28;20043;-43
2021/08/02 10:29:07;;;;;;;5.28;1.33;;;;;;;17.56;56.10;101019.69;5082849;28;19931;-44
2021/08/02 10:31:48;;;;;;;3.22;1.60;;;;;;;17.60;55.60;101026.16;5082870;28;20071;-41
2021/08/02 10:34:23;;;;;;;3.08;1.48;;;;;;;17.66;55.49;101025.78;5082532;28;20042;-41
2021/08/02 10:37:00;;;;;;;1.88;1.35;;;;;;;17.72;55.32;101016.63;5082637;28;20641;-42
2021/08/02 10:39:29;;;;;;;1.58;1.30;;;;;;;17.80;55.55;101017.50;5082192;28;20400;-46
2021/08/02 10:42:12;;;;;;;2.50;1.63;;;;;;;17.98;54.89;101019.25;5064519;28;20559;-44
2021/08/02 10:44:59;;;;;;;2.15;1.50;;;;;;;18.16;55.44;101030.59;5081605;28;20481;-43
2021/08/02 10:47:40;;;;;;;1.88;1.33;;;;;;;18.31;54.92;101026.69;5081783;28;20140;-44
2021/08/02 10:50:10;;;;;;;3.20;1.52;;;;;;;18.32;55.20;101028.28;5081691;28;20048;-43
2021/08/02 10:52:37;;;;;;;1.90;1.42;;;;;;;18.37;55.00;101033.53;5081122;28;20047;-45
2021/08/02 10:55:16;;;;;;;2.30;1.73;;;;;;;18.42;54.01;101027.56;5081093;28;20051;-41
2021/08/02 10:57:43;;;;;;;3.47;1.95;;;;;;;18.43;54.75;101023.53;5056063;28;20521;-43
2021/08/02 11:00:19;;;;;;;4.28;2.20;;;;;;;18.47;54.79;101021.63;5082159;28;20497;-41
2021/08/02 11:02:52;;;;;;;3.25;2.70;;;;;;;18.57;54.27;101023.66;5081371;28;20048;-47
2021/08/02 11:05:21;;;;;;;4.38;2.30;;;;;;;18.58;54.61;101019.69;5081613;28;20043;-47
2021/08/02 11:07:48;;;;;;;2.90;1.65;;;;;;;18.42;55.08;101035.16;5081902;28;20504;-41
2021/08/02 11:10:19;;;;;;;3.90;2.25;;;;;;;18.22;54.71;101024.22;5081925;28;20048;-41
2021/08/02 11:12:47;;;;;;;3.28;2.30;;;;;;;18.05;55.07;101021.31;5081484;28;20048;-45
2021/08/02 11:15:15;;;;;;;4.03;1.90;;;;;;;17.93;55.18;101022.41;5081347;28;20489;-41
2021/08/02 11:17:50;;;;;;;4.88;2.25;;;;;;;17.83;55.32;101028.72;5081181;28;20040;-41
2021/08/02 11:20:18;;;;;;;2.55;2.20;;;;;;;17.77;55.57;101029.47;5080417;28;20458;-41
2021/08/02 11:22:54;;;;;;;3.85;2.58;;;;;;;17.71;55.82;101031.03;5081726;28;20135;-41
2021/08/02 11:25:25;;;;;;;6.68;2.47;;;;;;;17.69;56.04;101039.00;5081861;28;20564;-44
2021/08/02 11:27:54;;;;;;;3.30;2.30;;;;;;;17.74;56.24;101025.44;5080752;28;20875;-41
2021/08/02 11:30:24;;;;;;;4.47;2.30;;;;;;;17.69;56.45;101030.59;5080866;28;20044;-41
2021/08/02 11:32:51;;;;;;;4.57;1.73;;;;;;;17.64;56.67;101029.75;5081132;28;20387;-45
2021/08/02 11:35:18;;;;;;;4.65;2.20;;;;;;;17.53;57.23;101030.84;5081389;28;20144;-41
2021/08/02 11:37:50;;;;;;;3.45;3.13;;;;;;;17.60;57.76;101026.16;5080139;28;20040;-46